Flight Track Log - Related Links

Times and Time Zones

All times are in EDT time to prevent confusion due to time zone crossing. See the N240ER flight status page for this flight to view local times or setup timezone preferences in your user account.

Time Position Orientation Groundspeed Altitude Reporting Facility
EDT Latitude Longitude Course Direction KTS MPH feet Rate Location/Type
Thu 03:12:11 PM 42.9500 -87.9333 277° West 119 137 2,200  Level KMKE
Thu 03:14:26 PM 42.9547 -88.0481 273° West 132 152 5,900 1,576 Climbing Chicago Center
Thu 03:15:29 PM 42.9775 -88.0933 305° West 139 160 7,400 1,392 Climbing Chicago Center
Thu 03:16:31 PM 42.9842 -88.1453 280° West 140 161 8,800 1,548 Climbing Chicago Center
Thu 03:17:33 PM 42.9811 -88.2117 266° West 148 170 10,600 1,306 Climbing Chicago Center
Thu 03:18:35 PM 42.9769 -88.2703 264° West 154 177 11,500 1,258 Climbing Chicago Center
Thu 03:19:37 PM 42.9706 -88.3253 261° West 148 170 13,200 1,500 Climbing Chicago Center
Thu 03:20:39 PM 42.9636 -88.3769 260° West 139 160 14,600 1,306 Climbing Chicago Center
Thu 03:21:41 PM 42.9581 -88.4297 262° West 139 160 15,900 1,210 Climbing Chicago Center
Thu 03:22:43 PM 42.9500 -88.4853 259° West 148 170 17,100 1,113 Climbing Chicago Center
Thu 03:23:45 PM 42.9417 -88.5475 260° West 144 166 18,200 1,065 Climbing Chicago Center
Thu 03:24:47 PM 42.9336 -88.6033 259° West 149 171 19,300 1,113 Climbing Chicago Center
Thu 03:25:49 PM 42.9253 -88.6611 259° West 154 177 20,500 1,056 Climbing Chicago Center
Thu 03:26:52 PM 42.9147 -88.7194 256° West 158 182 21,500 960 Climbing Chicago Center
Thu 03:27:54 PM 42.9042 -88.7786 256° West 160 184 22,500 1,016 Climbing Chicago Center
Thu 03:28:56 PM 42.8897 -88.8478 254° West 161 185 23,600 968 Climbing Chicago Center
Thu 03:29:58 PM 42.8775 -88.9103 255° West 170 196 24,500 968 Climbing Chicago Center
Thu 03:31:00 PM 42.8639 -88.9717 253° West 169 194 25,600 726 Climbing Chicago Center
Thu 03:32:02 PM 42.8517 -89.0364 256° West 174 200 26,000 194 Climbing Chicago Center
Thu 03:33:04 PM 42.8383 -89.1139 257° West 204 235 26,000  Level Chicago Center
Thu 03:34:06 PM 42.8258 -89.1936 258° West 213 245 26,000  Level Chicago Center
Thu 03:35:08 PM 42.8117 -89.2867 258° West 214 246 26,000  Level Chicago Center
Thu 03:36:10 PM 42.8006 -89.3678 259° West 216 249 26,000  Level Chicago Center
Thu 03:37:12 PM 42.7886 -89.4481 259° West 216 249 26,000  Level Chicago Center
Thu 03:38:15 PM 42.7758 -89.5281 258° West 216 249 26,000  Level Chicago Center
Thu 03:39:17 PM 42.7656 -89.6078 260° West 213 245 26,000  Level Chicago Center
Thu 03:40:19 PM 42.7506 -89.7019 258° West 216 249 26,000  Level Chicago Center
Thu 03:41:21 PM 42.7225 -89.7789 244° Southwest 224 258 26,000  Level Chicago Center
Thu 03:42:23 PM 42.6786 -89.8494 230° Southwest 242 278 26,000  Level Chicago Center
Thu 03:43:25 PM 42.6364 -89.9225 232° Southwest 240 276 26,000  Level Chicago Center
Thu 03:44:28 PM 42.5950 -89.9925 231° Southwest 240 276 26,000  Level Chicago Center
Thu 03:46:00 PM 42.5360 -90.0860 229° Southwest  Level FlightAware Approximate
Thu 03:46:31 PM 42.5125 -90.1306 229° Southwest 237 273 26,000  Level Chicago Center
Thu 03:47:33 PM 42.4628 -90.2144 231° Southwest 239 275 26,000  Level Chicago Center
Thu 03:48:36 PM 42.4219 -90.2822 231° Southwest 236 272 26,000  Level Chicago Center
Thu 03:49:38 PM 42.3814 -90.3519 232° Southwest 236 272 26,000  Level Chicago Center
Thu 03:50:40 PM 42.3394 -90.4192 230° Southwest 237 273 26,000  Level Chicago Center
Thu 03:51:42 PM 42.2986 -90.4892 232° Southwest 238 274 26,000  Level Chicago Center
Thu 03:52:44 PM 42.2492 -90.5708 231° Southwest 236 272 26,000  Level Chicago Center
Thu 03:53:46 PM 42.2081 -90.6386 231° Southwest 235 270 26,000  Level Chicago Center
Thu 03:54:48 PM 42.1664 -90.7056 230° Southwest 233 268 26,000  Level Chicago Center
Thu 03:55:50 PM 42.1253 -90.7742 231° Southwest 236 272 26,000  Level Chicago Center
Thu 03:56:52 PM 42.0844 -90.8408 230° Southwest 234 269 26,000  Level Chicago Center
Thu 03:57:54 PM 42.0356 -90.9208 231° Southwest 231 266 26,000  Level Chicago Center
Thu 03:58:56 PM 41.9936 -90.9883 230° Southwest 234 269 26,000  Level Chicago Center
Thu 03:59:59 PM 41.9533 -91.0558 231° Southwest 234 269 26,000  Level Chicago Center
Thu 04:01:01 PM 41.9117 -91.1228 230° Southwest 235 270 26,000  Level Chicago Center
Thu 04:02:03 PM 41.8714 -91.1869 230° Southwest 229 264 26,000  Level Chicago Center
Thu 04:03:05 PM 41.8311 -91.2522 230° Southwest 228 262 26,000  Level Chicago Center
Thu 04:04:07 PM 41.7825 -91.3314 231° Southwest 231 266 26,000  Level Chicago Center
Thu 04:05:09 PM 41.7419 -91.3961 230° Southwest 230 265 26,000  Level Chicago Center
Thu 04:06:11 PM 41.7017 -91.4625 231° Southwest 232 267 26,000  Level Chicago Center
Thu 04:07:13 PM 41.6611 -91.5264 230° Southwest 230 265 26,000  Level Chicago Center
Thu 04:08:15 PM 41.6203 -91.5908 230° Southwest 228 262 26,000  Level Chicago Center
Thu 04:09:17 PM 41.5711 -91.6694 230° Southwest 230 265 26,000  Level Chicago Center
Thu 04:10:20 PM 41.5308 -91.7339 230° Southwest 228 262 26,000  Level Chicago Center
Thu 04:11:22 PM 41.4908 -91.7978 230° Southwest 227 261 26,000  Level Chicago Center
Thu 04:12:24 PM 41.4497 -91.8611 229° Southwest 227 261 26,000  Level Chicago Center
Thu 04:13:26 PM 41.4092 -91.9258 230° Southwest 228 262 26,000  Level Chicago Center
Thu 04:14:28 PM 41.3606 -92.0025 230° Southwest 228 262 26,000  Level Chicago Center
Thu 04:15:30 PM 41.3194 -92.0664 229° Southwest 229 264 26,000  Level Chicago Center
Thu 04:16:32 PM 41.2789 -92.1308 230° Southwest 229 264 26,000  Level Chicago Center
Thu 04:17:34 PM 41.2389 -92.1931 229° Southwest 224 258 26,000  Level Chicago Center
Thu 04:18:36 PM 41.1922 -92.2667 230° Southwest 225 259 26,000  Level Chicago Center
Thu 04:19:38 PM 41.1522 -92.3289 230° Southwest 225 259 26,000  Level Chicago Center
Thu 04:20:40 PM 41.1108 -92.3914 229° Southwest 227 261 26,000  Level Chicago Center
Thu 04:21:42 PM 41.0706 -92.4547 230° Southwest 228 262 26,000  Level Chicago Center
Thu 04:22:45 PM 41.0294 -92.5186 230° Southwest 230 265 26,000  Level Chicago Center
Thu 04:23:47 PM 40.9800 -92.5956 230° Southwest 232 267 26,000  Level Chicago Center
Thu 04:24:49 PM 40.9378 -92.6597 229° Southwest 234 269 26,000  Level Chicago Center
Thu 04:25:51 PM 40.8961 -92.7239 229° Southwest 233 268 26,000  Level Chicago Center
Thu 04:26:53 PM 40.8542 -92.7881 229° Southwest 234 269 26,000  Level Chicago Center
Thu 04:27:55 PM 40.8050 -92.8631 229° Southwest 229 264 26,000  Level Chicago Center
Thu 04:28:57 PM 40.7636 -92.9275 230° Southwest 232 267 26,000  Level Chicago Center
Thu 04:29:59 PM 40.7236 -92.9892 229° Southwest 226 260 26,000  Level Chicago Center
Thu 04:31:01 PM 40.6828 -93.0517 229° Southwest 228 262 26,000  Level Chicago Center
Thu 04:32:03 PM 40.6411 -93.1144 229° Southwest 229 264 26,000  Level Chicago Center
Thu 04:32:59 PM 40.6014 -93.1769 230° Southwest 226 260 26,000  Level Kansas City Center
Thu 04:34:02 PM 40.5614 -93.2394 230° Southwest 225 259 26,000  Level Kansas City Center
Thu 04:35:04 PM 40.5175 -93.2986 226° Southwest 228 262 26,000  Level Kansas City Center
Thu 04:36:05 PM 40.4689 -93.3717 229° Southwest 225 259 26,000  Level Kansas City Center
Thu 04:37:06 PM 40.4289 -93.4342 230° Southwest 224 258 26,000  Level Kansas City Center
Thu 04:38:09 PM 40.3883 -93.4956 229° Southwest 225 259 26,000  Level Kansas City Center
Thu 04:40:14 PM 40.3058 -93.6175 228° Southwest 225 259 26,000  Level Kansas City Center
Thu 04:41:15 PM 40.2561 -93.6911 229° Southwest 226 260 26,000  Level Kansas City Center
Thu 04:42:18 PM 40.2150 -93.7531 229° Southwest 227 261 26,000  Level Kansas City Center
Thu 04:43:18 PM 40.1731 -93.8131 228° Southwest 226 260 26,000  Level Kansas City Center
Thu 04:44:21 PM 40.1325 -93.8739 229° Southwest 225 259 26,000  Level Kansas City Center
Thu 04:45:25 PM 40.0922 -93.9350 229° Southwest 224 258 26,000  Level Kansas City Center
Thu 04:46:26 PM 40.0425 -94.0075 228° Southwest 225 259 26,000  Level Kansas City Center
Thu 04:47:29 PM 40.0022 -94.0692 230° Southwest 226 260 26,000  Level Kansas City Center
Thu 04:48:29 PM 39.9581 -94.1331 228° Southwest 226 260 26,000  Level Kansas City Center
Thu 04:49:33 PM 39.9186 -94.1922 229° Southwest 226 260 26,000  Level Kansas City Center
Thu 04:51:00 PM 39.8604 -94.2758 228° Southwest  Level FlightAware Approximate
Thu 04:51:34 PM 39.8331 -94.3161 228° Southwest 221 254 26,000  Level Kansas City Center
Thu 04:52:38 PM 39.7872 -94.3828 228° Southwest 220 253 26,000  Level Kansas City Center
Thu 04:53:39 PM 39.7483 -94.4394 228° Southwest 220 253 26,000  Level Kansas City Center
Thu 04:54:43 PM 39.7042 -94.5061 229° Southwest 219 252 26,000  Level Kansas City Center
Thu 04:55:43 PM 39.6644 -94.5619 227° Southwest 220 253 26,000  Level Kansas City Center
Thu 04:56:47 PM 39.6197 -94.6264 228° Southwest 217 250 26,000  Level Kansas City Center
Thu 04:57:47 PM 39.5817 -94.6825 229° Southwest 216 249 26,000  Level Kansas City Center
Thu 04:58:51 PM 39.5367 -94.7472 228° Southwest 217 250 26,000  Level Kansas City Center
Thu 04:59:52 PM 39.4986 -94.8031 229° Southwest 216 249 26,000  Level Kansas City Center
Thu 05:00:53 PM 39.4608 -94.8569 228° Southwest 211 243 26,000  Level Kansas City Center
Thu 05:01:57 PM 39.4178 -94.9175 227° Southwest 205 236 26,000  Level Kansas City Center
Thu 05:02:58 PM 39.3806 -94.9708 228° Southwest 208 239 26,000  Level Kansas City Center
Thu 05:04:01 PM 39.3369 -95.0333 228° Southwest 209 241 26,000  Level Kansas City Center
Thu 05:05:02 PM 39.2992 -95.0869 228° Southwest 210 242 26,000  Level Kansas City Center
Thu 05:06:03 PM 39.2528 -95.1531 228° Southwest 211 243 26,000  Level Kansas City Center
Thu 05:07:07 PM 39.2142 -95.2086 228° Southwest 209 241 26,000  Level Kansas City Center
Thu 05:08:08 PM 39.1747 -95.2636 227° Southwest 208 239 26,000  Level Kansas City Center
Thu 05:09:11 PM 39.1339 -95.3219 228° Southwest 204 235 26,000  Level Kansas City Center
Thu 05:10:13 PM 39.0950 -95.3767 228° Southwest 206 237 26,000  Level Kansas City Center
Thu 05:11:13 PM 39.0531 -95.4356 227° Southwest 208 239 26,000  Level Kansas City Center
Thu 05:12:17 PM 39.0169 -95.4867 228° Southwest 207 238 26,000 -96 Level Kansas City Center
Thu 05:13:18 PM 38.9728 -95.5492 228° Southwest 212 244 25,800 -537 Descending Kansas City Center
Thu 05:14:20 PM 38.9333 -95.6033 227° Southwest 216 249 24,900 -864 Descending Kansas City Center
Thu 05:15:23 PM 38.8869 -95.6689 228° Southwest 219 252 24,000 -432 Descending Kansas City Center
Thu 05:16:25 PM 38.8486 -95.7233 228° Southwest 214 246 24,000  Level Kansas City Center
Thu 05:17:25 PM 38.8103 -95.7753 227° Southwest 211 243 24,000  Level Kansas City Center
Thu 05:18:29 PM 38.7672 -95.8364 228° Southwest 209 241 24,000 -142 Level Kansas City Center
Thu 05:19:32 PM 38.7289 -95.8881 226° Southwest 208 239 23,700 -683 Descending Kansas City Center
Thu 05:20:32 PM 38.6836 -95.9528 228° Southwest 214 246 22,600 -976 Descending Kansas City Center
Thu 05:21:35 PM 38.6464 -96.0075 229° Southwest 213 245 21,700 -1,016 Descending Kansas City Center
Thu 05:22:36 PM 38.5997 -96.0686 226° Southwest 214 246 20,500 -1,016 Descending Kansas City Center
Thu 05:23:39 PM 38.5608 -96.1239 228° Southwest 215 247 19,600 -960 Descending Kansas City Center
Thu 05:24:41 PM 38.5144 -96.1853 226° Southwest 215 247 18,500 -912 Descending Kansas City Center
Thu 05:25:44 PM 38.4756 -96.2392 227° Southwest 215 247 17,700 -871 Descending Kansas City Center
Thu 05:26:45 PM 38.4319 -96.2989 227° Southwest 206 237 16,700 -968 Descending Kansas City Center
Thu 05:27:48 PM 38.3981 -96.3453 227° Southwest 189 217 15,700 -1,008 Descending Kansas City Center
Thu 05:28:50 PM 38.3600 -96.3978 227° Southwest 182 209 14,600 -984 Descending Kansas City Center
Thu 05:29:50 PM 38.3272 -96.4425 227° Southwest 180 207 13,700 -942 Descending Kansas City Center
Thu 05:30:51 PM 38.2861 -96.4950 225° Southwest 188 216 12,700 -960 Descending Kansas City Center
Thu 05:31:55 PM 38.2553 -96.5422 230° Southwest 181 208 11,700 -960 Descending Kansas City Center
Thu 05:32:56 PM 38.2194 -96.5883 225° Southwest 182 209 10,700 -952 Descending Kansas City Center
Thu 05:34:01 PM 38.1850 -96.6356 227° Southwest 183 211 9,700 -960 Descending Kansas City Center
Thu 05:35:01 PM 38.1506 -96.6867 229° Southwest 190 219 8,700 -1,091 Descending Kansas City Center
Thu 05:36:02 PM 38.1094 -96.7503 231° Southwest 193 222 7,500 -1,096 Descending Kansas City Center
Thu 05:36:56 PM 38.0794 -96.7931 228° Southwest 186 214 6,600 -968 Descending Kansas City Center
Thu 05:38:06 PM 38.0419 -96.8442 227° Southwest 179 206 5,500 -1,031 Descending Kansas City Center
Thu 05:39:04 PM 38.0056 -96.8928 226° Southwest 176 203 4,400 -960 Descending Kansas City Center
Thu 05:40:11 PM 37.9764 -96.9372 230° Southwest 176 203 3,500 -634 Descending Kansas City Center
Thu 05:41:07 PM 37.9414 -96.9856 227° Southwest 177 204 3,100 -197 Descending Kansas City Center
Thu 05:42:13 PM 37.9064 -97.0364 229° Southwest 174 200 3,100 -46 Level Kansas City Center
Thu 05:43:17 PM 37.8706 -97.0842 226° Southwest 175 201 3,000 -48 Descending Kansas City Center
Thu 05:44:18 PM 37.8358 -97.1283 225° Southwest 175 201 3,000  Level Kansas City Center
Thu 05:45:22 PM 37.8025 -97.1639 220° Southwest 168 193 3,000 48 Level Kansas City Center
Thu 05:46:23 PM 37.7589 -97.1797 196° South 164 189 3,100 -240 Climbing Kansas City Center
Thu 05:47:27 PM 37.7478 -97.2364 256° West 174 200 2,500 -290 Descending Kansas City Center
Thu 05:48:27 PM 37.7900 -97.2558 340° North 176 203 2,500 -148 Level Kansas City Center
Thu 05:49:29 PM 37.7892 -97.2172 92° East 136 157 2,200 -290 Descending Kansas City Center

Login

Don't have an account? Register now (free) for customized features, flight alerts, and more!